Date	Time of Day	Time of Run (sec)	Data PointGroup	Data Point Number	N1 Frequency (Hz)	N1 Percent	N1 RPM (51,120)	N2 Frequency (Hz)	N2 Percent	N2 RPM (35,000)	Engine TOT (F)	Air Plenum Temperature (F)	Ambient Temperature (F)	Ambient Pressure (psia)	Ambient Relative Humidity	Compressor Bleed Temperature (F)	Compressor Bleed Pressure (psig)	Bleed Temperature (F)	Bleed Pressure (in H2O)	Bleed Pressure (psia)	Bleed DP Pressure (in H2O)	Bleed Air SV	Sample	Orifice Plate	Sonic Orifice Plate Dia.	Dyno RPM	Dyno Torque (lbf*ft)	Dyno HorsePower (Hp)	Compressor Bleed Pressure (psia)	Compressor Pressure Ratio	Compressor Bleed Temperature (C)	Comp Simple Isentropic Temp Expected (C)	Bleed Air Mass Flow (lbm/min)	Bleed Air Volumetric Flow (SCFM)	Bleed Air Volumetric Flow (LPM)
11/7/2014 3:25:31 PM	15:25:31	0	A	1	59	84.28571	43086.86	51	72.85714	25500	1058.491	68.83208	67.07617	14.14725	24.905	105.1393	42.16	68.38299	-0.4950008	14.13019	7.799911E-02	0	1	1	0.25	4491	124.6001	106.5437	55.98225	3.957112	40.63295	158.7508	0.2386086	3.119563	88.33604
11/7/2014 3:25:41 PM	15:25:41	0	A	1	60	85.71429	43817.14	55	78.57143	27500	1077.969	70.08951	67.05905	14.1465	24.875	107.1666	44.5	68.29317	-0.5779991	14.12904	7.999992E-02	0	1	1	0.25	4770	132	119.8832	58.8315	4.158732	41.7592	165.8571	0.2343178	3.063465	86.74752
11/7/2014 3:25:51 PM	15:25:51	0	A	1	61	87.14285	44547.43	58	82.85715	29000	1098.714	70.08951	67.0676	14.14725	24.845	110.3837	45.52499	68.33808	-0.5230007	14.12788	7.799911E-02	0	1	1	0.25	5014	137.6001	131.5525	60.00225	4.241265	43.54651	168.2844	0.2342648	3.062772	86.72791
11/7/2014 3:26:01 PM	15:26:01	0	A	1	63	90	46008	61	87.14285	30500	1138.148	69.73024	67.0676	14.14725	24.845	112.7635	48.97	68.33808	-0.5470009	14.129	7.799911E-02	0	1	1	0.25	5313	145.3999	147.6926	63.33725	4.477001	44.86863	174.7311	0.2298925	3.005609	85.10922
11/7/2014 3:26:11 PM	15:26:11	0	A	1	63	90	46008	62	88.57143	31000	1131.712	69.68533	67.07617	14.14725	24.82001	116.3773	48.05499	68.38299	-0.5189991	14.12882	8.499908E-02	0	1	1	0.25	5372	145.6001	149.3327	62.19725	4.39642	46.87629	172.4167	0.2399742	3.137416	88.84158
11/7/2014 3:26:21 PM	15:26:21	0	A	1	62	88.57143	45277.71	62	88.57143	31000	1136.023	69.73024	67.08469	14.14837	24.82001	120.697	48.19	68.65244	-0.4510002	14.12897	0.0720005	0	1	1	0.25	5369	146.7998	149.454	62.25838	4.400391	49.27609	172.5674	0.2238945	2.92719	82.88866
11/7/2014 3:26:31 PM	15:26:31	0	A	1	63	90	46008	61	87.14285	30500	1170.544	70.31405	67.08469	14.14837	24.82001	332.4318	47.39	68.83208	10.698	14.54027	12.376	1	3	1	0.25	5358	147.7998	150.9839	61.40338	4.33996	166.9066	171.331	2.891057	37.7976	1070.307
11/7/2014 3:26:41 PM	15:26:41	0	A	1	63	90	46008	62	88.57143	31000	1164.847	70.04459	67.08469	14.148	24.94501	381.615	47.56	69.28116	10.264	14.51373	11.714	1	3	1	0.25	5368	148	151.2657	62.258	4.400481	194.2306	172.948	2.807681	36.70755	1039.44
11/7/2014 3:26:51 PM	15:26:51	0	A	1	62	88.57143	45277.71	62	88.57143	31000	1174.242	70.35896	67.09323	14.14837	25	391.6552	47.17999	70.13441	10.111	14.50934	11.532	1	3	1	0.25	5370	146	149.2771	61.09837	4.318402	199.8084	170.7481	2.783806	36.39541	1030.601
11/7/2014 3:27:01 PM	15:27:01	0	A	1	63	90	46008	62	88.57143	31000	1172.457	70.67332	67.09323	14.14837	25	397.5983	47.42999	70.53859	9.748001	14.50496	11.368	1	3	1	0.25	5371	148.6001	152.1682	61.79837	4.367878	203.1102	172.4333	2.763093	36.1246	1022.933
11/7/2014 3:27:11 PM	15:27:11	0	A	1	62	88.57143	45277.71	62	88.57143	31000	1137.723	70.89786	67.09323	14.14837	24.94	377.9231	47.60001	71.25713	-0.3959999	14.12778	0.0720005	0	3	1	0.25	5375	147.6001	151.2581	61.48837	4.345967	192.1795	171.9934	0.2202053	2.878958	81.52287
11/7/2014 3:27:21 PM	15:27:21	0	A	1	62	90	46008	62	88.57143	31000	1160.383	71.39185	67.11035	14.14875	24.92999	363.3805	47.705	71.43676	9.872002	14.50718	11.438	1	3	1	0.25	5366	147.7998	151.2093	61.71876	4.362135	184.1003	172.8723	2.770121	36.21648	1025.535
11/7/2014 3:27:31 PM	15:27:31	0	A	1	63	88.57143	45277.71	62	88.57143	31000	1167.1	71.07749	67.11035	14.14875	24.92999	406.9181	47.495	71.75111	9.617001	14.49172	10.969	1	3	1	0.25	5370	147	149.8907	61.41375	4.340578	208.2879	171.9891	2.710936	35.44271	1003.624
11/7/2014 3:27:41 PM	15:27:41	0	A	1	62	90	46008	62	88.57143	31000	1165.74	70.31405	67.1189	14.14837	25.2	411.0152	47.675	72.2002	9.623001	14.49394	11.029	1	3	1	0.25	5368	148	151.4703	61.30338	4.332892	210.564	171.1278	2.71754	35.52905	1006.069
11/7/2014 3:27:51 PM	15:27:51	0	A	1	63	90	46008	62	88.57143	31000	1165.57	69.86496	67.14456	14.148	25.09	412.9062	47.39999	72.60437	9.580002	14.49523	10.982	1	3	1	0.25	5368	147.6001	150.2436	61.518	4.348176	211.6146	171.1901	2.712327	35.46089	1004.139
11/7/2014 3:28:01 PM	15:28:01	0	A	1	62	88.57143	45277.71	62	88.57143	31000	1169.013	69.68533	67.14456	14.148	25.09	415.0223	47.61501	73.09837	9.654999	14.49389	11.018	1	3	1	0.25	5360	149	152.2651	61.303	4.33298	212.7902	170.6033	2.713923	35.48176	1004.73
11/7/2014 3:28:11 PM	15:28:11	0	A	1	63	90	46008	62	88.57143	31000	1165.484	69.59552	67.16165	14.14875	24.99001	415.3375	48.33501	73.81689	9.643002	14.49544	11.049	1	3	1	0.25	5362	149.6001	153.1385	62.45875	4.414436	212.9653	172.8525	2.714513	35.48947	1004.948
11/7/2014 3:28:21 PM	15:28:21	0	A	1	62	90	46008	62	88.57143	31000	1159.448	68.74226	67.16165	14.14875	25.05	416.328	47.215	73.99653	9.387001	14.48463	10.791	1	3	1	0.25	5380	146	149.5551	61.64875	4.357187	213.5156	170.5057	2.683524	35.08432	993.4758
11/7/2014 3:28:31 PM	15:28:31	0	A	1	63	90	46008	62	87.14285	30500	1169.948	68.92189	67.16165	14.14875	25.05	417.9938	47.75	74.17616	9.187	14.48879	10.59	1	3	1	0.25	5371	148	151.1455	61.35876	4.336691	214.441	169.9567	2.662392	34.80804	985.6523
11/7/2014 3:28:41 PM	15:28:41	0	A	1	63	90	46008	62	88.57143	31000	1174.625	70.04459	67.17877	14.14913	25.08	421.5507	47.655	74.3558	9.368999	14.48761	10.69	1	3	1	0.25	5376	145.7998	149.0346	61.72913	4.362752	216.4171	171.7584	2.670694	34.91658	988.7258
11/7/2014 3:28:51 PM	15:28:51	0	A	1	63	90	46008	62	88.57143	31000	1167.653	71.88584	67.17877	14.15025	25.16	424.6123	47.355	74.71507	9.159	14.4836	10.576	1	3	1	0.25	5372	147.7998	150.7646	61.53025	4.348351	218.1179	172.8909	2.659221	34.76659	984.4785
11/7/2014 3:29:01 PM	15:29:01	0	A	1	62	90	46008	62	88.57143	31000	1163.231	70.89786	67.17877	14.15025	25.16	422.226	46.98	75.43359	9.243	14.47952	10.604	1	3	1	0.25	5374	145.7998	148.9792	61.31524	4.333156	216.7922	171.6248	2.656798	34.73491	983.5814
11/7/2014 3:29:11 PM	15:29:11	0	A	1	63	90	46008	62	88.57143	31000	1173.902	70.94276	67.20441	14.1495	25.11501	423.7568	46.965	75.47851	8.998001	14.48108	10.43	1	3	1	0.25	5372	146.7998	149.5375	61.2145	4.326266	217.6427	171.4639	2.635586	34.45758	975.7284
11/7/2014 3:29:21 PM	15:29:21	0	A	1	62	88.57143	45277.71	62	88.57143	31000	1161.233	70.49368	67.21295	14.1495	25.015	423.6668	47.685	75.92049	9.354	14.47837	10.618	1	3	1	0.25	5372	145.7998	149.5375	62.1795	4.394466	217.5927	173.0414	2.657184	34.73995	983.7241
11/7/2014 3:29:31 PM	15:29:31	0	A	1	63	90	46008	61	88.57143	31000	1165.74	70.85295	67.21295	14.1495	25.015	424.6573	47.8	76.0527	9.258999	14.48401	10.578	1	3	1	0.25	5362	146.3999	150.2801	61.3045	4.332626	218.1429	171.5719	2.652526	34.67906	981.9999
11/7/2014 3:29:41 PM	15:29:41	0	A	1	63	90	46008	61	88.57143	31000	1161.573	70.85295	67.2215	14.14913	24.97	424.5673	47.84	76.27305	9.243	14.47493	10.483	1	3	1	0.25	5371	147.6001	150.7366	61.32413	4.334128	218.0929	171.6152	2.639544	34.50933	977.1939
11/7/2014 3:29:51 PM	15:29:51	0	A	1	64	90	46008	61	87.14285	30500	1183.425	70.5835	67.23004	14.14988	24.955	426.3682	49.67	76.44933	9.693001	14.50574	11.242	1	3	1	0.25	5323	161	163.1731	63.82987	4.510984	219.0934	176.4058	2.733089	35.73233	1011.825
11/7/2014 3:30:01 PM	15:30:01	0	A	1	60	87.14285	44547.43	65	92.85714	32500	1203.109	69.86496	67.23004	14.14988	24.955	434.2061	38.825	76.62562	6.728001	14.39729	7.952999	1	3	1	0.25	5612	103.3999	111.3403	53.25988	3.763982	223.4478	153.5619	2.300045	30.07073	851.5069
11/7/2014 3:30:11 PM	15:30:11	0	A	1	61	85.71429	43817.14	62	88.57143	31000	1116.079	70.49368	67.23859	14.15025	25.03	403.9466	44.47501	76.71376	8.292999	14.44226	9.509998	1	3	1	0.25	5395	126.3999	129.6336	58.43526	4.129627	206.637	165.3272	2.513511	32.86157	930.5345
11/7/2014 3:30:21 PM	15:30:21	0	A	1	64	91.42857	46738.29	61	88.57143	31000	1174.88	71.57149	67.26425	14.1495	25.03	422.091	49.255	77.15446	9.571999	14.50233	11.019	1	3	1	0.25	5334	158.3999	160.2602	63.5095	4.488462	216.7172	176.6114	2.708974	35.41706	1002.898
11/7/2014 3:30:31 PM	15:30:31	0	A	1	63	91.42857	46738.29	61	87.14285	30500	1191.885	71.07749	67.26425	14.1495	25.03	431.2265	49.56	77.24261	9.799999	14.50573	11.144	1	3	1	0.25	5317	160.7998	162.3817	63.5895	4.494116	221.7925	176.3519	2.719514	35.55485	1006.8
11/7/2014 3:30:41 PM	15:30:41	0	A	1	63	90	46008	62	88.57143	31000	1178.876	71.03259	67.28137	14.1495	25.395	430.4705	47.53999	77.5511	9.188	14.48275	10.552	1	3	1	0.25	5368	146.2002	149.6303	61.8395	4.370437	221.3725	172.8083	2.645056	34.5814	979.2345
11/7/2014 3:30:51 PM	15:30:51	0	A	1	61	87.14285	44547.43	62	88.57143	31000	1127.022	71.1224	67.29843	14.14988	-0.3600006	421.9109	45.105	77.63924	8.462002	14.4515	9.729	1	3	1	0.25	5395	130.2002	133.5368	58.92987	4.164692	216.6172	166.8898	2.540151	33.20987	940.3972
11/7/2014 3:31:01 PM	15:31:01	0	A	1	60	85.71429	43817.14	63	90	31500	1080.419	70.5835	67.29843	14.14988	-0.3600006	411.6906	41.37	77.5511	7.321999	14.41991	8.639	1	3	1	0.25	5435	106.6001	110.726	55.50487	3.92264	210.9392	159.1196	2.394767	31.30912	886.5741
11/7/2014 3:31:11 PM	15:31:11	0	A	1	58	82.85715	42356.57	62	90	31500	1057.477	71.25713	67.30701	14.15063	-0.3600006	400.2997	38.13499	77.63924	6.585999	14.38701	7.655998	1	3	1	0.25	5453	92.7998	96.14199	52.26563	3.693521	206.0367	152.4213	2.254661	29.47738	834.705
11/7/2014 3:31:21 PM	15:31:21	0	A	1	57	81.42857	41626.28	63	90	31500	1026.591	70.53859	67.3241	14.15063	-0.3600006	387.9182	36.77	77.5511	6.209	14.37733	7.278999	1	3	1	0.25	5468	83	86.41175	50.88563	3.595999	197.7324	148.6666	2.197981	28.73635	813.7214
11/7/2014 3:31:31 PM	15:31:31	0	A	1	58	81.42857	41626.28	63	90	31500	1043.069	71.03259	67.3241	14.15063	-0.3600006	381.57	37.44	77.41888	6.562	14.39059	7.619999	1	3	1	0.25	5461	84.2002	86.92509	52.01063	3.6755	194.2056	151.5861	2.250217	29.41927	833.0596
11/7/2014 3:31:41 PM	15:31:41	0	A	1	58	81.42857	41626.28	63	90	31500	1039.562	71.79602	67.33264	14.151	-0.3549957	375.4017	36.82001	77.59517	6.515999	14.38609	7.493	1	3	1	0.25	5458	82.6001	85.21452	51.026	3.605823	190.7787	149.9907	2.231048	29.16866	825.9632
11/7/2014 3:31:51 PM	15:31:51	0	A	1	58	82.85715	42356.57	63	90	31500	1044.548	71.79602	67.33264	14.15025	-0.3600006	374.3662	37.705	77.63924	6.735001	14.39513	7.762001	1	3	1	0.25	5460	84.2002	87.32491	51.85525	3.664618	190.2035	151.9153	2.270543	29.68502	840.5847
11/7/2014 3:32:01 PM	15:32:01	0	A	1	57	81.42857	41626.28	63	90	31500	1031.957	71.07749	67.33264	14.15025	-0.3600006	372.1151	37.55	77.68331	6.673	14.39473	7.757999	1	3	1	0.25	5463	85.2002	88.41305	51.67025	3.651544	188.9528	150.9152	2.273701	29.7263	841.7538
11/7/2014 3:32:11 PM	15:32:11	0	A	1	58	82.85715	42356.57	63	90	31500	1050.632	70.85295	67.36685	14.14988	-0.3600006	372.07	38	77.72738	6.921001	14.39924	7.93	1	3	1	0.25	5464	88.3999	91.55025	51.83487	3.663274	188.9278	151.1174	2.294591	29.99943	849.4878
11/7/2014 3:32:21 PM	15:32:21	0	A	1	57	81.42857	41626.28	62	90	31500	1035.253	71.1673	67.36685	14.15063	-0.3600006	372.5203	36.47501	77.94774	6.445	14.38626	7.507999	1	3	1	0.25	5461	82.7998	86.50928	50.44563	3.564904	189.1779	148.139	2.230917	29.16695	825.9146
11/7/2014 3:32:31 PM	15:32:31	0	A	1	57	81.42857	41626.28	63	90	31500	1044.125	71.70621	67.36685	14.15063	-0.3600006	371.7549	37.075	78.12402	6.678001	14.38795	7.66	1	3	1	0.25	5461	86.7998	89.83624	51.34563	3.628506	188.7527	150.6643	2.253003	29.4557	834.0912
11/7/2014 3:32:41 PM	15:32:41	0	A	1	57	81.42857	41626.28	63	90	31500	1040.112	72.06548	67.38397	14.15063	-0.3600006	369.6838	36.89	78.47659	6.655998	14.38803	7.679001	1	3	1	0.25	5468	86	89.53506	50.83562	3.592465	187.6021	149.7646	2.25701	29.50809	835.5746
11/7/2014 3:32:51 PM	15:32:51	0	A	1	57	81.42857	41626.28	64	90	31500	1028.493	71.03259	67.38397	14.15025	-0.3549957	369.0985	37.02	78.43251	6.650002	14.38982	7.674	1	3	1	0.25	5477	88	92.39386	51.17524	3.616561	187.277	149.7356	2.255819	29.49252	835.1338
11/7/2014 3:33:01 PM	15:33:01	0	A	1	57	81.42857	41626.28	63	90	31500	1039.9	70.94276	67.38397	14.15025	-0.3549957	368.4682	36.52	78.6088	6.497002	14.37959	7.516998	1	3	1	0.25	5490	86.6001	90.31332	50.45524	3.565679	186.9268	147.9864	2.231927	29.18015	826.2886
11/7/2014 3:33:11 PM	15:33:11	0	A	1	58	82.85715	42356.57	64	91.42857	32000	1038.041	71.1673	67.40103	14.15025	-0.3600006	370.4492	37.81	78.69694	6.916	14.40066	7.900002	1	3	1	0.25	5568	84.3999	89.47617	51.90526	3.668151	188.0273	151.5273	2.290372	29.94427	847.9258
11/7/2014 3:33:21 PM	15:33:21	0	A	1	57	81.42857	41626.28	64	91.42857	32000	1039.182	70.89786	67.40961	14.15025	-0.3600006	369.5487	38.455	78.6088	6.909	14.40027	8.07	1	3	1	0.25	5596	82.7998	88.86064	52.30525	3.696419	187.5271	152.2269	2.312498	30.23354	856.1171
11/7/2014 3:33:31 PM	15:33:31	0	A	1	58	82.85715	42356.57	65	92.85714	32500	1043.661	71.03259	67.40961	14.15025	-0.3600006	369.3686	38.075	78.82915	6.974998	14.40045	7.973	1	3	1	0.25	5600	85	91.05663	52.40526	3.703486	187.427	152.563	2.298408	30.04932	850.9007
11/7/2014 3:33:41 PM	15:33:41	0	A	1	58	82.85715	42356.57	65	92.85714	32500	1039.309	71.1224	67.43524	14.14988	-0.3600006	372.7904	40.125	78.741	7.537998	14.42262	8.66	1	3	1	0.25	5636	88.3999	94.21732	54.24488	3.833594	189.328	156.7801	2.398424	31.35694	887.9281
11/7/2014 3:33:51 PM	15:33:51	0	A	1	58	82.85715	42356.57	65	92.85714	32500	1056.125	71.39185	67.46091	14.14988	-0.3600006	374.5013	39.28	78.82915	7.298	14.40918	8.411999	1	3	1	0.25	5671	88.2002	96.09834	53.59987	3.78801	190.2785	155.5571	2.360538	30.86161	873.9022
11/7/2014 3:34:01 PM	15:34:01	0	A	1	59	84.28571	43086.86	66	94.28571	33000	1057.308	72.42474	67.46091	14.14988	-0.3600006	377.5629	39.83501	79.0495	7.411999	14.42342	8.587002	1	3	1	0.25	5724	88.2002	95.9066	54.22487	3.83218	191.9794	157.7903	2.388351	31.22524	884.199
11/7/2014 3:34:11 PM	15:34:11	0	A	1	58	82.85715	42356.57	65	92.85714	32500	1043.957	71.39185	67.48657	14.1495	-0.3549957	377.3828	40.69	79.00543	7.609001	14.41983	8.655998	1	3	1	0.25	5699	102	110.8962	54.30951	3.838263	191.8793	157.1452	2.389896	31.24544	884.7709
11/7/2014 3:34:21 PM	15:34:21	0	A	1	59	84.28571	43086.86	66	94.28571	33000	1070.955	70.35896	67.48657	14.15063	-0.3600006	385.1268	41.28	79.31393	7.799999	14.43429	9.001999	1	3	1	0.25	5717	101.3999	108.1983	55.69563	3.935913	196.1816	159.3462	2.438196	31.87691	902.6522
11/7/2014 3:34:31 PM	15:34:31	0	A	1	60	85.71429	43817.14	66	94.28571	33000	1086.757	70.31405	67.48657	14.15063	-0.3600006	388.4135	42.675	79.35799	8.193001	14.44231	9.32	1	3	1	0.25	5703	105.6001	114.6658	56.48563	3.991741	198.0075	161.022	2.482814	32.46025	919.1703
11/7/2014 3:34:41 PM	15:34:41	0	A	1	60	85.71429	43817.14	66	94.28571	33000	1097.235	71.34694	67.51221	14.1495	-0.3600006	394.5367	42.2	79.26985	7.889999	14.43457	9.130001	1	3	1	0.25	5703	106	115.5343	56.2745	3.977137	201.4093	161.421	2.457553	32.12999	909.8184
11/7/2014 3:34:51 PM	15:34:51	0	A	1	60	85.71429	43817.14	66	94.28571	33000	1096.559	70.98767	67.53784	14.14988	-0.3600006	396.6528	42.675	79.09357	8.098	14.44514	9.243999	1	3	1	0.25	5703	111.7998	122.0494	56.80487	4.014514	202.5849	162.2683	2.474447	32.35085	916.0726
11/7/2014 3:35:01 PM	15:35:01	0	A	1	61	85.71429	43817.14	65	92.85714	32500	1120.811	71.70621	67.53784	14.14988	-0.3600006	400.7499	44.23	79.00543	8.485001	14.45663	9.588001	1	3	1	0.25	5693	117.2002	125.9546	57.93488	4.094374	204.8611	165.2741	2.524543	33.0058	934.6187
11/7/2014 3:35:11 PM	15:35:11	0	A	1	61	87.14285	44547.43	66	94.28571	33000	1113.671	71.84093	67.55496	14.14912	-0.3600006	403.0011	43.91	78.96136	8.409	14.44897	9.506001	1	3	1	0.25	5690	114	123.7215	58.37413	4.125636	206.1117	166.3222	2.508336	32.79391	928.6186
11/7/2014 3:35:21 PM	15:35:21	0	A	1	61	85.71429	43817.14	65	92.85714	32500	1107.755	71.6613	67.57205	14.15025	-0.3600006	404.3968	44.035	79.13764	8.367001	14.45462	9.612	1	3	1	0.25	5695	114.2002	124.0468	58.41525	4.128213	206.8871	166.2506	2.524303	33.00267	934.5301
11/7/2014 3:35:31 PM	15:35:31	0	A	1	60	85.71429	43817.14	65	94.28571	33000	1118.868	72.37983	67.57205	14.15025	-0.3600006	405.9726	44.145	79.22578	8.502998	14.45773	9.604	1	3	1	0.25	5695	117.2002	125.7818	57.92026	4.093232	207.7626	165.7956	2.52106	32.96027	933.3295
11/7/2014 3:35:41 PM	15:35:41	0	A	1	61	87.14285	44547.43	65	92.85714	32500	1114.347	72.37983	67.57205	14.1495	-0.3600006	406.1978	43.715	79.71056	8.320999	14.45015	9.484001	1	3	1	0.25	5693	116	125.5207	57.8395	4.087742	207.8876	165.6303	2.504903	32.74903	927.3478
11/7/2014 3:35:51 PM	15:35:51	0	A	1	61	87.14285	44547.43	66	92.85714	32500	1124.656	71.84093	67.5806	14.1495	-0.3600006	405.7925	44.375	79.44614	8.543999	14.46099	9.748001	1	3	1	0.25	5686	121.6001	130.1302	58.8895	4.16195	207.6625	167.4041	2.539029	33.19519	939.9816
11/7/2014 3:36:01 PM	15:36:01	0	A	1	61	87.14285	44547.43	66	94.28571	33000	1120.769	71.93075	67.5806	14.1495	-0.3600006	408.584	44.73	79.53428	8.673	14.46171	9.839001	1	3	1	0.25	5685	122.2002	132.0555	58.84451	4.158769	209.2133	167.384	2.547486	33.30577	943.1127
11/7/2014 3:36:11 PM	15:36:11	0	A	1	62	88.57143	45277.71	66	92.85714	32500	1132.261	71.39185	67.58917	14.14988	-0.3549957	410.4749	44.91499	79.93092	8.745998	14.47112	9.932999	1	3	1	0.25	5681	125.7998	136.7218	59.93488	4.235718	210.2639	169.2071	2.562248	33.49876	948.5778
11/7/2014 3:36:21 PM	15:36:21	0	A	1	62	88.57143	45277.71	65	94.28571	33000	1132.515	70.71822	67.58917	14.1495	-0.3549957	410.655	45.25	79.84277	8.743	14.46269	9.995998	1	3	1	0.25	5677	126.3999	136.6255	59.1145	4.17785	210.3639	166.9441	2.569574	33.59454	951.2899
11/7/2014 3:36:31 PM	15:36:31	0	A	1	61	88.57143	45277.71	65	92.85714	32500	1131.416	70.49368	67.58917	14.1495	-0.3549957	411.1053	45.795	79.88684	8.667999	14.46898	10.089	1	3	1	0.25	5680	127.2002	136.2652	60.1795	4.253118	210.6141	168.9672	2.581636	33.75224	955.7555
11/7/2014 3:36:41 PM	15:36:41	0	A	1	62	87.14285	44547.43	65	92.85714	32500	1124.36	70.13441	67.60623	14.15025	-0.3549957	411.4655	45.57001	80.1072	8.91	14.46402	9.992001	1	3	1	0.25	5678	125.6001	136.866	59.80525	4.226445	210.8141	167.8884	2.568569	33.5814	950.9178
11/7/2014 3:36:51 PM	15:36:51	0	A	1	63	88.57143	45277.71	65	92.85714	32500	1136.575	69.86496	67.62335	14.1495	-0.3549957	412.0508	46.42999	80.01905	9.137001	14.47075	10.266	1	3	1	0.25	5674	131.2002	140.6589	60.8545	4.300823	211.1393	169.8271	2.603389	34.03664	963.8086
11/7/2014 3:37:01 PM	15:37:01	0	A	1	62	88.57143	45277.71	66	94.28571	33000	1152.773	71.79602	67.62335	14.1495	-0.3549957	419.0294	46.46001	80.23941	8.957001	14.47653	10.234	1	3	1	0.25	5674	133.7998	144.7639	60.5245	4.277501	215.0163	170.7647	2.599454	33.9852	962.3521
11/7/2014 3:37:11 PM	15:37:11	0	A	1	62	90	46008	66	94.28571	33000	1147.671	71.39185	67.6319	14.1495	-0.3600006	418.399	46.47501	80.01905	8.995998	14.47411	10.225	1	3	1	0.25	5669	131.6001	142.6937	60.7945	4.296583	214.6662	170.9814	2.596547	33.94719	961.2759
11/7/2014 3:37:21 PM	15:37:21	0	A	1	62	88.57143	45277.71	66	92.85714	32500	1155.749	72.64928	67.64044	14.1495	-0.3600006	420.9203	46.19501	79.97498	8.755001	14.46634	10.155	1	3	1	0.25	5672	132.7998	143.2011	60.2495	4.258066	216.0669	170.9097	2.589381	33.8535	958.6229
11/7/2014 3:37:31 PM	15:37:31	0	A	1	62	88.57143	45277.71	65	94.28571	33000	1153.198	71.39185	67.64044	14.1495	-0.3600006	422.046	47.015	80.01905	9.153	14.47819	10.381	1	3	1	0.25	5669	137.2002	147.8745	61.3095	4.33298	216.6922	172.0339	2.622	34.27996	970.6989
11/7/2014 3:37:41 PM	15:37:41	0	A	1	62	88.57143	45277.71	65	94.28571	33000	1156.132	70.26914	67.64899	14.1495	-0.3600006	424.2521	46.62	79.7987	9.139999	14.47888	10.427	1	3	1	0.25	5666	136.3999	146.7174	61.21951	4.32662	217.9178	170.9096	2.624802	34.3166	971.7362
11/7/2014 3:37:51 PM	15:37:51	0	A	1	62	90	46008	65	92.85714	32500	1158.045	70.26914	67.72595	14.1495	-0.3600006	425.1526	47.19501	79.75463	8.98	14.47602	10.338	1	3	1	0.25	5667	136	145.8803	61.2795	4.33086	218.4181	171.2576	2.612394	34.15437	967.1425
11/7/2014 3:38:01 PM	15:38:01	0	A	1	63	90	46008	65	92.85714	32500	1163.742	70.35896	67.72595	14.1495	-0.3600006	426.8634	47.45	79.57835	9.243	14.48307	10.384	1	3	1	0.25	5664	135.3999	146.6656	61.6395	4.356303	219.3686	171.8377	2.620098	34.25508	969.9944
11/7/2014 3:38:11 PM	15:38:11	0	A	1	63	90	46008	65	92.85714	32500	1172.032	71.25713	67.81143	14.1495	-0.3549957	429.2497	47.13	79.53428	9.02	14.47262	10.242	1	3	1	0.25	5659	139.7998	150.8461	60.87949	4.30259	220.6943	171.0428	2.602519	34.02526	963.4865
11/7/2014 3:38:21 PM	15:38:21	0	A	1	62	88.57143	45277.71	66	92.85714	32500	1162.041	72.7391	67.86276	14.14988	-0.3549957	430.515	46.535	79.71056	8.945999	14.46733	10.089	1	3	1	0.25	5669	133.7998	144.4202	60.39988	4.26858	221.3972	171.292	2.579545	33.7249	954.9813
11/7/2014 3:38:31 PM	15:38:31	0	A	1	63	90	46008	65	92.85714	32500	1164.294	71.84093	67.86276	14.14988	-0.3549957	428.5743	46.59	79.7987	8.973999	14.47231	10.095	1	3	1	0.25	5657	131.7998	143.2531	60.63488	4.285188	220.3191	171.0259	2.585262	33.79965	957.098
11/7/2014 3:38:41 PM	15:38:41	0	A	1	62	88.57143	45277.71	65	94.28571	33000	1154.091	73.18819	67.8884	14.1495	-0.3600006	431.1376	46.155	79.7987	8.862999	14.471	10.101	1	3	1	0.25	5663	133.7998	144.4833	60.37949	4.267253	221.7431	171.6281	2.580917	33.74284	955.4891
11/7/2014 3:38:51 PM	15:38:51	0	A	1	63	90	46008	65	92.85714	32500	1156.174	72.64928	67.92261	14.15025	-0.3600006	428.2141	46.38499	79.75463	8.787998	14.4746	10.128	1	3	1	0.25	5660	133.3999	143.3291	60.78026	4.295348	220.119	171.9971	2.586577	33.81684	957.5847
11/7/2014 3:39:01 PM	15:39:01	0	A	1	62	88.57143	45277.71	66	94.28571	33000	1146.779	71.93075	67.92261	14.15025	-0.3600006	427.5838	46.63	79.88684	8.969002	14.47265	10.214	1	3	1	0.25	5661	133.7998	143.3544	60.66525	4.287221	219.7688	171.1601	2.597471	33.95926	961.6175
11/7/2014 3:39:11 PM	15:39:11	0	A	1	62	90	46008	65	92.85714	32500	1154.176	71.39185	67.95679	14.14988	-0.3600006	425.8729	46.74001	80.19534	9.046001	14.46917	10.205	1	3	1	0.25	5664	133.3999	143.8616	60.62987	4.284834	218.8183	170.6404	2.594928	33.92602	960.6763
11/7/2014 3:39:21 PM	15:39:21	0	A	1	62	88.57143	45277.71	65	92.85714	32500	1155.706	71.52657	67.95679	14.14988	-0.3600006	425.3777	46.825	80.37162	9.084	14.47687	10.258	1	3	1	0.25	5658	131.3999	141.3395	60.81987	4.298262	218.5432	171.1428	2.599289	33.98304	962.2908
11/7/2014 3:39:31 PM	15:39:31	0	A	1	63	88.57143	45277.71	65	92.85714	32500	1157.747	72.7391	67.95679	14.14988	-0.3600006	428.6194	46.81	80.50383	8.966999	14.47687	10.344	1	3	1	0.25	5665	136.2002	145.1816	61.65987	4.357626	220.3441	173.874	2.613234	34.16535	967.4534
11/7/2014 3:39:41 PM	15:39:41	0	A	1	63	88.57143	45277.71	65	92.85714	32500	1159.66	71.79602	67.97391	14.14988	-0.3600006	426.7734	46.985	80.68011	9.035	14.47614	10.282	1	3	1	0.25	5655	136.6001	146.002	61.06487	4.315577	219.3186	171.8698	2.604888	34.05623	964.3635
11/7/2014 3:39:51 PM	15:39:51	2	A	1	62	88.57143	45277.71	65	92.85714	32500	1157.875	72.02056	67.97391	14.14988	-0.3600006	428.2141	46.675	80.76826	9.085999	14.4747	10.23	1	3	1	0.25	5659	136.3999	145.6744	60.81987	4.298262	220.119	171.556	2.597515	33.95984	961.634
11/7/2014 3:40:01 PM	15:40:01	12	A	1	63	90	46008	65	92.85714	32500	1169.056	73.63726	67.96536	14.15025	-0.3600006	431.4489	46.705	80.63605	8.914001	14.478	10.196	1	3	1	0.25	5659	138.2002	147.1828	61.02525	4.312663	221.9161	173.327	2.595916	33.93894	961.0422
11/7/2014 3:40:11 PM	15:40:11	22	A	1	62	88.57143	45277.71	65	94.28571	33000	1156.132	72.91873	67.97391	14.14988	-0.3600006	430.8263	46.86501	80.81232	9.028999	14.47701	10.22	1	3	1	0.25	5652	132.6001	143.3419	60.81987	4.298262	221.5702	172.6452	2.596393	33.94518	961.2188
11/7/2014 3:40:21 PM	15:40:21	32	A	1	62	90	46008	66	94.28571	33000	1152.348	71.03259	67.98245	14.15025	-0.3600006	428.2592	46.87	80.81232	9.011002	14.47666	10.252	1	3	1	0.25	5661	135.2002	144.4322	61.24025	4.327856	220.144	171.585	2.600299	33.99625	962.6649
11/7/2014 3:40:31 PM	15:40:31	42	A	1	62	90	46008	65	92.85714	32500	1147.841	69.59552	67.98245	14.15025	-0.3600006	426.8634	46.785	80.63605	9.064999	14.47276	10.298	1	3	1	0.25	5660	135.2002	145.7001	61.26526	4.329623	219.3686	170.4315	2.606033	34.07121	964.7876
11/7/2014 3:40:41 PM	15:40:41	52	A	1	63	90	46008	65	92.85714	32500	1153.113	69.10152	67.99957	14.14988	-0.3600006	426.7734	46.795	80.68011	9.02	14.47423	10.264	1	3	1	0.25	5655	134	143.8486	61.03487	4.313456	219.3186	169.5526	2.601872	34.01681	963.2471
11/7/2014 3:40:51 PM	15:40:51	62	A	1	63	90	46008	66	92.85714	32500	1160.17	70.08951	67.99957	14.14988	-0.3600006	428.6194	46.87	80.23941	9.094002	14.47181	10.212	1	3	1	0.25	5660	136.6001	147.2088	61.35988	4.336426	220.3441	171.0412	2.596301	33.94397	961.1844
11/7/2014 3:41:01 PM	15:41:01	72	A	1	62	88.57143	45277.71	65	94.28571	33000	1166.802	72.42474	68.00809	14.15063	-0.3600006	431.8047	46.965	80.45976	8.925999	14.47599	10.22	1	3	1	0.25	5657	134.6001	145.1916	60.86562	4.301268	222.1137	171.9813	2.598007	33.96628	961.8163
11/7/2014 3:41:11 PM	15:41:11	82	A	1	63	90	46008	65	92.85714	32500	1160.553	72.55946	67.991	14.15063	-0.3600006	429.4297	47.22501	80.1072	9.030998	14.47603	10.259	1	3	1	0.25	5653	136.3999	145.5199	61.30563	4.332362	220.7943	172.9948	2.602803	34.02898	963.5917
11/7/2014 3:41:21 PM	15:41:21	92	A	1	62	88.57143	45277.71	65	92.85714	32500	1167.44	73.86181	67.991	14.15063	-0.3600006	432.7385	46.98	80.19534	8.875999	14.47162	10.191	1	3	1	0.25	5655	133.6001	144.0636	61.23063	4.327062	222.6325	173.9329	2.591563	33.88203	959.4307
11/7/2014 3:41:31 PM	15:41:31	102	A	1	63	90	46008	65	92.85714	32500	1169.906	75.11924	68.02521	14.151	-0.3600006	434.0726	46.645	80.1072	8.895	14.47546	10.104	1	3	1	0.25	5655	134.7998	145.1403	61.161	4.322027	223.3737	174.8402	2.583574	33.77758	956.473
11/7/2014 3:41:41 PM	15:41:41	112	A	1	63	90	46008	65	92.85714	32500	1166.207	74.26598	68.02521	14.14988	-0.3600006	434.4729	47.17	80.06313	9.02	14.46642	10.069	1	3	1	0.25	5654	135.7998	146.6222	61.34987	4.335718	223.5961	174.5225	2.578001	33.70472	954.4098
11/7/2014 3:41:51 PM	15:41:51	122	A	1	62	88.57143	45277.71	65	94.28571	33000	1162.296	74.13126	68.02521	14.14988	-0.3600006	434.0282	46.66	79.88684	8.835999	14.47268	10.151	1	3	1	0.25	5656	135.3999	146.0278	61.03487	4.313456	223.349	173.7636	2.590913	33.87353	959.1899
11/7/2014 3:42:01 PM	15:42:01	132	A	1	62	88.57143	45277.71	65	92.85714	32500	1159.235	72.33492	68.03375	14.14988	-0.3600006	431.0042	47.14	79.93092	8.720001	14.47824	10.026	1	3	1	0.25	5655	135.7998	146.8632	61.15987	4.32229	221.669	172.5154	2.583011	33.77021	956.2643
11/7/2014 3:42:50 PM	15:42:50	0	A	1	63	90	46008	65	92.85714	32500	1160.085	72.60437	68.05084	14.151	-0.3600006	430.2037	46.905	80.28348	8.985001	14.48092	10.243	1	3	1	0.25	5652	135.7998	146.5703	61.536	4.348526	221.2243	173.4989	2.600989	34.00526	962.9201
11/7/2014 3:43:00 PM	15:43:00	0	A	1	63	90	46008	65	92.85714	32500	1167.355	72.29002	68.05084	14.151	-0.3600006	429.88	47.295	80.41569	8.939999	14.48179	10.118	1	3	1	0.25	5645	133.3999	143.8088	61.056	4.314606	221.0445	172.2554	2.585152	33.79821	957.0571
11/7/2014 3:43:10 PM	15:43:10	0	A	1	62	88.57143	45277.71	65	92.85714	32500	1170.374	73.45763	68.0423	14.15175	-0.3600006	430.4705	47.25	80.59197	8.854	14.47484	10.084	1	3	1	0.25	5648	134.7998	143.8853	61.21675	4.325737	221.3725	173.5558	2.579875	33.72921	955.1034
11/7/2014 3:43:20 PM	15:43:20	0	A	1	62	90	46008	65	92.85714	32500	1164.124	73.77199	68.0423	14.15212	-0.3600006	430.8263	46.78999	80.81232	8.942001	14.47619	10.209	1	3	1	0.25	5651	136.6001	148.9112	60.93212	4.305511	221.5702	173.2318	2.593472	33.90698	960.1372
11/7/2014 3:43:30 PM	15:43:30	0	A	1	63	90	46008	65	92.85714	32500	1164.847	74.04144	68.0423	14.15212	-0.3600006	431.3155	47.5	80.76826	9.056	14.47362	10.298	1	3	1	0.25	5652	135	145.0633	61.30212	4.331655	221.8419	174.2165	2.605788	34.068	964.6968
11/7/2014 3:43:40 PM	15:43:40	0	A	1	63	88.57143	45277.71	65	92.85714	32500	1164.422	73.23309	68.05084	14.15212	-0.3600006	430.9597	47.67	81.07675	9.185001	14.47716	10.265	1	3	1	0.25	5647	134.7998	146.2254	60.86712	4.300918	221.6443	172.6474	2.602422	34.02399	963.4506
11/7/2014 3:43:50 PM	15:43:50	0	A	1	63	88.57143	45277.71	65	92.85714	32500	1161.786	71.79602	68.05084	14.1525	-0.3600006	431.1821	47.465	81.16489	9.130001	14.47555	10.262	1	3	1	0.25	5653	135.7998	144.4436	61.4775	4.343932	221.7678	172.6883	2.596893	33.95171	961.4037
11/7/2014 3:44:00 PM	15:44:00	0	A	1	63	88.57143	45277.71	65	92.85714	32500	1164.464	72.2002	68.05084	14.1525	-0.3600006	430.8263	46.91499	80.94453	8.879002	14.47942	10.22	1	3	1	0.25	5656	136.2002	147.1047	61.12751	4.319202	221.5702	172.3133	2.596296	33.9439	961.1826
11/7/2014 3:44:10 PM	15:44:10	0	A	1	62	90	46008	65	94.28571	33000	1154.176	70.80804	68.11923	14.1525	-0.3600006	428.8445	47.175	80.72418	8.896	14.47982	10.257	1	3	1	0.25	5652	136.7998	146.1395	61.2425	4.327327	220.4691	171.3816	2.601426	34.01098	963.082
11/7/2014 3:44:20 PM	15:44:20	8	A	2	62	90	46008	65	92.85714	32500	1163.827	71.25713	68.11923	14.1525	-0.3600006	430.7374	46.97501	80.72418	8.889	14.47262	10.156	1	3	1	0.25	5649	133.3999	143.9108	61.45749	4.342518	221.5208	172.1955	2.588906	33.84729	958.447
11/7/2014 3:44:30 PM	15:44:30	18	A	2	63	90	46008	65	92.85714	32500	1153.623	70.40386	68.17056	14.1525	-0.3600006	428.6644	47.19501	80.81232	8.887001	14.47642	10.23	1	3	1	0.25	5654	135.7998	146.4067	61.15751	4.321321	220.3691	170.8698	2.597571	33.96057	961.6545
11/7/2014 3:44:40 PM	15:44:40	28	A	2	62	88.57143	45277.71	65	92.85714	32500	1153.921	69.55061	68.17911	14.15288	24.17999	428.0341	47.735	80.45976	9.007	14.48449	10.324	1	3	1	0.25	5652	134.3999	145.0633	61.56787	4.350202	220.0189	170.9844	2.610739	34.13274	966.5298
11/7/2014 3:44:50 PM	15:44:50	38	A	2	62	88.57143	45277.71	65	92.85714	32500	1151.498	68.74226	68.17911	14.15288	24.17999	426.6383	47.45	80.15127	8.943001	14.48276	10.297	1	3	1	0.25	5651	134	144.3925	61.61787	4.353735	219.2435	170.407	2.605414	34.06312	964.5585
11/7/2014 3:45:00 PM	15:45:00	48	A	2	62	88.57143	45277.71	65	92.85714	32500	1152.901	70.5835	68.18765	14.15287	24.065	430.6039	46.88	80.19534	8.937	14.47488	10.17	1	3	1	0.25	5656	134.6001	144.0891	60.97288	4.308163	221.4466	170.6404	2.587283	33.82607	957.8461
11/7/2014 3:45:10 PM	15:45:10	58	A	2	62	88.57143	45277.71	65	92.85714	32500	1159.66	70.5835	68.17911	14.15325	24.02	429.6999	46.935	80.1072	8.84	14.48089	10.215	1	3	1	0.25	5653	135.3999	147.6726	60.86326	4.300303	220.9444	170.4131	2.597826	33.96391	961.7491
11/7/2014 3:45:20 PM	15:45:20	68	A	2	63	88.57143	45277.71	65	92.85714	32500	1158.682	70.04459	68.17911	14.15325	24.02	428.2592	46.86	80.15127	9.070999	14.48133	10.183	1	3	1	0.25	5649	136	146.7073	61.30325	4.33139	220.144	170.8587	2.594052	33.91457	960.3519
11/7/2014 3:45:30 PM	15:45:30	78	A	2	62	88.57143	45277.71	65	94.28571	33000	1160.34	70.80804	68.17911	14.15438	24.22501	430.4705	46.53999	80.19534	9	14.47757	10.24	1	3	1	0.25	5655	137.2002	147.0787	61.24937	4.32724	221.3725	171.379	2.600399	33.99755	962.7018
11/7/2014 3:45:40 PM	15:45:40	88	A	2	62	88.57143	45277.71	65	94.28571	33000	1155.536	70.53859	68.17911	14.15363	24.355	429.0246	47.245	80.1072	8.999001	14.48018	10.249	1	3	1	0.25	5654	134.2002	145.1147	61.28862	4.330242	220.5692	171.2397	2.603559	34.03886	963.8716
11/7/2014 3:45:50 PM	15:45:50	98	A	2	62	90	46008	66	94.28571	33000	1153.921	70.89786	68.17911	14.15363	24.355	428.6644	47.05	80.01905	8.959999	14.47773	10.116	1	3	1	0.25	5651	135.2002	146.7593	60.96863	4.307633	220.3691	170.8882	2.585478	33.80247	957.1777
11/7/2014 3:46:00 PM	15:46:00	108	A	2	62	88.57143	45277.71	65	92.85714	32500	1154.856	70.62841	68.20477	14.15438	24.25	426.8184	47.065	79.93092	8.951	14.48263	10.241	1	3	1	0.25	5647	134.3999	145.1503	60.84438	4.298627	219.3436	170.4021	2.601621	34.01353	963.1542
11/7/2014 3:46:10 PM	15:46:10	118	A	2	62	90	46008	65	92.85714	32500	1152.56	70.89786	68.1962	14.15438	24.245	427.7189	47.255	80.15127	8.988998	14.47761	10.099	1	3	1	0.25	5650	134.3999	145.4427	60.62938	4.283437	219.8438	170.187	2.583043	33.77064	956.2764
11/7/2014 3:46:20 PM	15:46:20	128	A	2	63	88.57143	45277.71	65	92.85714	32500	1152.39	70.53859	68.1962	14.15438	24.245	427.6739	47.265	80.50383	9.026001	14.47887	10.23	1	3	1	0.25	5652	134	144.8484	61.18938	4.323001	219.8188	171.0311	2.598542	33.97327	962.0143
11/7/2014 3:46:38 PM	15:46:38	0	A	2	62	88.57143	45277.71	65	94.28571	33000	1153.708	69.59552	68.22183	14.15475	24.34	427.899	46.755	80.59197	9.026001	14.48156	10.297	1	3	1	0.25	5654	133.2002	143.3926	61.39975	4.337748	219.9439	170.6649	2.605724	34.06717	964.6731
11/7/2014 3:46:48 PM	15:46:48	0	A	2	62	88.57143	45277.71	65	94.28571	33000	1151.37	69.82005	68.22183	14.15475	24.34	427.989	47.08	80.68011	8.973	14.48597	10.286	1	3	1	0.25	5651	134.3999	145.4685	61.47476	4.343048	220.144	171.0053	2.605668	34.06643	964.6523
11/7/2014 3:46:58 PM	15:46:58	0	A	2	62	88.57143	45277.71	65	94.28571	33000	1151.03	69.55061	68.23895	14.15475	24.285	427.2686	47.02499	80.63605	9.030998	14.47961	10.17	1	3	1	0.25	5654	137.6001	147.4832	61.35474	4.334569	219.5937	170.536	2.591487	33.88104	959.4026
11/7/2014 3:47:08 PM	15:47:08	0	A	2	63	88.57143	45277.71	65	92.85714	32500	1153.708	70.04459	68.25604	14.1555	24.145	426.6383	46.91499	80.94453	8.970001	14.48097	10.222	1	3	1	0.25	5649	135.2002	145.8471	60.6805	4.286708	219.2435	169.3436	2.596685	33.94899	961.3268
11/7/2014 3:47:18 PM	15:47:18	0	A	2	62	90	46008	65	92.85714	32500	1172.159	72.2002	68.25604	14.1555	24.145	432.6051	47.11	80.72418	8.882999	14.47776	10.21	1	3	1	0.25	5649	135.6001	144.7715	61.33051	4.332627	222.5584	172.7013	2.595437	33.93268	960.8648
11/7/2014 3:47:28 PM	15:47:28	3	A	3	63	90	46008	65	92.85714	32500	1166.462	72.96364	68.26459	14.15512	24.33501	433.1832	46.675	81.03268	8.876999	14.47767	10.125	1	3	1	0.25	5647	133.2002	143.8598	61.18512	4.322472	222.8796	173.0474	2.584166	33.78532	956.6923
11/7/2014 3:47:38 PM	15:47:38	13	A	3	62	90	46008	65	92.85714	32500	1165.229	72.87383	68.27316	14.15587	24.33501	433.7169	47.39	80.90047	8.948002	14.4751	10.184	1	3	1	0.25	5648	133	144.1006	61.49587	4.344194	223.176	173.6001	2.589084	33.84962	958.5128
11/7/2014 3:47:48 PM	15:47:48	23	A	3	62	90	46008	66	94.28571	33000	1158.64	73.09837	68.27316	14.15587	24.33501	432.8719	47.155	80.8564	9.039001	14.47914	10.193	1	3	1	0.25	5652	136.6001	147.0007	61.07087	4.314171	222.7066	172.9196	2.593145	33.90271	960.0161
11/7/2014 3:47:58 PM	15:47:58	33	A	3	63	88.57143	45277.71	65	92.85714	32500	1159.15	71.79602	68.28171	14.15587	24.38	431.8936	46.64	80.94453	9.002998	14.48489	10.282	1	3	1	0.25	5645	133.7998	144.4538	61.31087	4.331126	222.1631	172.658	2.604435	34.05032	964.1962
11/7/2014 3:48:08 PM	15:48:08	43	A	3	63	90	46008	65	92.85714	32500	1169.523	72.784	68.28171	14.15625	24.09	434.0726	46.315	80.59197	8.722	14.47695	10.049	1	3	1	0.25	5647	135.7998	145.1503	61.35126	4.333864	223.3737	173.2264	2.575704	33.67469	953.5593
11/7/2014 3:48:18 PM	15:48:18	53	A	3	62	90	46008	66	94.28571	33000	1172.414	75.38869	68.28171	14.15625	24.09	437.319	47.175	80.50383	8.956001	14.47775	10.083	1	3	1	0.25	5647	134.2002	145.1503	61.14125	4.319029	225.1772	174.9787	2.578731	33.71426	954.6799
11/7/2014 3:48:28 PM	15:48:28	63	A	3	63	88.57143	45277.71	65	92.85714	32500	1157.917	73.00855	68.30737	14.15625	24.19501	433.2722	47.015	80.59197	8.959	14.48096	10.198	1	3	1	0.25	5654	136	145.3302	61.44125	4.340221	222.929	173.5984	2.594564	33.92126	960.5416
11/7/2014 3:48:38 PM	15:48:38	73	A	3	63	88.57143	45277.71	65	92.85714	32500	1157.747	71.1224	68.32443	14.15625	24.205	431.36	46.825	80.28348	8.993999	14.48104	10.152	1	3	1	0.25	5651	135.2002	145.0377	61.07625	4.314437	221.8667	171.2729	2.588011	33.83558	958.1154
11/7/2014 3:48:48 PM	15:48:48	83	A	3	62	90	46008	66	94.28571	33000	1160.34	71.03259	68.32443	14.15625	24.205	432.7385	46.83501	80.19534	8.855	14.48075	10.158	1	3	1	0.25	5649	137.3999	148.6437	61.09125	4.315496	222.6325	171.2283	2.590549	33.86877	959.0551
11/7/2014 3:48:58 PM	15:48:58	93	A	3	63	90	46008	65	92.85714	32500	1169.651	71.61639	68.33301	14.15663	24.10001	433.7169	46.875	80.1072	8.832001	14.4812	10.122	1	3	1	0.25	5651	134.3999	143.9617	61.20663	4.323532	223.176	171.9494	2.586084	33.81039	957.4022
11/7/2014 3:49:08 PM	15:49:08	103	A	3	63	90	46008	66	92.85714	32500	1166.973	73.05346	68.33301	14.15663	23.96001	435.6736	47.10001	80.06313	8.923	14.47935	10.146	1	3	1	0.25	5650	134.2002	144.1516	61.39162	4.3366	224.2631	173.5314	2.585032	33.79664	957.0128
11/7/2014 3:49:18 PM	15:49:18	113	A	3	63	88.57143	45277.71	65	92.85714	32500	1163.359	72.91873	68.33301	14.15663	23.96001	433.2277	46.645	80.28348	8.811001	14.47939	9.981998	1	3	1	0.25	5649	135.7998	145.6318	60.66662	4.285387	222.9043	171.9324	2.56692	33.55984	950.3074
11/7/2014 3:49:28 PM	15:49:28	123	A	3	63	90	46008	65	92.85714	32500	1168.886	72.06548	68.32443	14.15625	24.125	432.8719	47.64	80.19534	8.946999	14.48035	10.19	1	3	1	0.25	5637	132.7998	142.9615	61.33125	4.33245	222.7066	172.5832	2.594097	33.91516	960.3688
11/7/2014 3:49:38 PM	15:49:38	133	A	3	62	90	46008	66	94.28571	33000	1166.59	74.84979	68.33301	14.15663	24.39999	435.6291	46.52499	80.15127	8.819	14.47664	9.960999	1	3	1	0.25	5654	134	143.6076	60.51162	4.274438	224.2384	173.2256	2.565742	33.54445	949.8713
11/7/2014 3:49:48 PM	15:49:48	0	A	3	62	88.57143	45277.71	65	92.85714	32500	1157.322	74.13126	68.33301	14.15663	24.39999	432.1159	47.03	80.23941	8.841999	14.47863	10.064	1	3	1	0.25	5652	132.2002	142.0503	60.87663	4.300221	222.2866	173.3784	2.57969	33.7268	955.0351
11/7/2014 3:49:58 PM	15:49:58	7	A	4	63	90	46008	66	92.85714	32500	1158.087	73.09837	68.33301	14.15663	24.39999	430.4261	46.89	80.28348	8.865002	14.47935	10.074	1	3	1	0.25	5649	132	141.7596	61.22663	4.324945	221.3478	173.2319	2.583263	33.77352	956.3579
11/7/2014 3:50:08 PM	15:50:08	17	A	4	63	88.57143	45277.71	65	92.85714	32500	1161.191	73.23309	68.33301	14.15625	24.44	430.6929	46.75999	80.41569	8.825001	14.48302	10.191	1	3	1	0.25	5646	133.2002	143.8343	61.34625	4.33351	221.496	173.5926	2.594312	33.91797	960.4483
11/7/2014 3:50:18 PM	15:50:18	27	A	4	62	88.57143	45277.71	65	94.28571	33000	1156.472	73.09837	68.33301	14.15625	24.44	429.3847	46.63499	80.59197	8.98	14.4797	10.121	1	3	1	0.25	5650	133.2002	144.367	60.93124	4.304194	220.7693	172.6299	2.584914	33.7951	956.9691
11/7/2014 3:50:28 PM	15:50:28	37	A	4	62	88.57143	45277.71	65	92.85714	32500	1160	73.14327	68.3501	14.15625	24.47501	429.3847	47.2	80.8564	8.888	14.47916	10.133	1	3	1	0.25	5650	134.2002	144.1516	60.91125	4.302782	220.7693	172.6264	2.585723	33.80568	957.2685
11/7/2014 3:50:38 PM	15:50:38	0	A	4	62	90	46008	65	92.85714	32500	1157.322	73.77199	68.3501	14.15663	24.53	431.1821	46.735	81.03268	8.685001	14.47643	10.047	1	3	1	0.25	5650	133.3999	144.5818	60.87663	4.300221	221.7678	173.0779	2.574355	33.65705	953.0601
11/7/2014 3:50:48 PM	15:50:48	0	A	4	62	88.57143	45277.71	65	92.85714	32500	1163.061	73.32291	68.3501	14.15663	24.53	432.027	46.55499	81.20896	8.765999	14.47668	10.033	1	3	1	0.25	5653	135	144.874	60.66163	4.285035	222.2372	172.2599	2.572219	33.62912	952.2692
11/7/2014 3:50:58 PM	15:50:58	4	A	4	63	90	46008	65	92.85714	32500	1156.259	72.7391	68.37576	14.15587	24.49001	430.7374	46.825	81.25303	9.014	14.47542	10.03	1	3	1	0.25	5654	132.7998	143.6076	61.18587	4.322296	221.5208	172.8542	2.571629	33.6214	952.0505
11/7/2014 3:51:08 PM	15:51:08	14	A	4	63	88.57143	45277.71	65	92.85714	32500	1154.601	72.46965	68.35864	14.15625	24.545	429.0246	46.77499	81.16489	8.93	14.48035	10.171	1	3	1	0.25	5653	133.3999	143.5822	61.49126	4.343753	220.5692	173.2482	2.58844	33.8412	958.2745
11/7/2014 3:51:18 PM	15:51:18	24	A	4	63	90	46008	66	92.85714	32500	1161.063	72.29002	68.35864	14.15625	24.545	428.8895	46.535	81.2971	8.812	14.4797	10.079	1	3	1	0.25	5651	131.3999	141.8098	61.08125	4.314791	220.4942	172.2607	2.578009	33.70483	954.4128
11/7/2014 3:51:28 PM	15:51:28	34	A	4	62	88.57143	45277.71	65	92.85714	32500	1166.42	73.54745	68.37576	14.15587	24.60001	429.3397	47.095	81.34118	8.863998	14.48178	10.094	1	3	1	0.25	5653	132.3999	142.0755	60.95087	4.305695	220.7443	173.0493	2.583317	33.77422	956.3779
11/7/2014 3:51:38 PM	15:51:38	44	A	4	62	88.57143	45277.71	65	92.85714	32500	1165.527	73.00855	68.38431	14.15625	24.705	428.9345	46.39999	81.2971	8.741001	14.47627	10.062	1	3	1	0.25	5650	131.3999	142.2154	61.18625	4.322207	220.5192	173.0773	2.574086	33.65353	952.9603
11/7/2014 3:51:48 PM	15:51:48	54	A	4	62	88.57143	45277.71	65	92.85714	32500	1154.091	72.7391	68.38431	14.15625	24.705	428.9796	46.755	81.38525	8.91	14.48104	10.149	1	3	1	0.25	5654	132.3999	143.1771	60.84625	4.29819	220.5442	172.1549	2.58698	33.82211	957.7339
11/7/2014 3:51:58 PM	15:51:58	64	A	4	63	88.57143	45277.71	65	92.85714	32500	1147.119	71.84093	68.39285	14.15625	24.595	426.5933	47.12	81.69374	8.852001	14.48154	10.142	1	3	1	0.25	5653	133.7998	143.3673	61.35126	4.333864	219.2185	172.4358	2.585053	33.79691	957.0204
11/7/2014 3:52:08 PM	15:52:08	74	A	4	62	88.57143	45277.71	65	94.28571	33000	1159.108	72.69419	68.40997	14.1555	24.63	429.6099	46.55499	81.47339	8.883999	14.47754	10.153	1	3	1	0.25	5649	131.6001	141.7596	61.08549	4.315319	220.8944	172.6144	2.586569	33.81674	957.5818
11/7/2014 3:52:18 PM	15:52:18	84	A	4	62	88.57143	45277.71	65	92.85714	32500	1150.477	72.784	68.40997	14.1555	24.63	428.0341	46.80499	81.38525	9.025002	14.47765	10.146	1	3	1	0.25	5654	132.3999	142.7466	60.77051	4.293067	220.0189	172.0434	2.582334	33.76137	956.0139
11/7/2014 3:52:28 PM	15:52:28	94	A	4	62	88.57143	45277.71	65	92.85714	32500	1148.862	71.88584	68.39285	14.15587	24.64999	426.5032	46.95	81.47339	9.075001	14.4833	10.157	1	3	1	0.25	5657	135	144.3302	60.77088	4.29298	219.1685	171.2899	2.586364	33.81405	957.5057
11/7/2014 3:52:38 PM	15:52:38	104	A	4	62	88.57143	45277.71	66	94.28571	33000	1160.425	71.88584	68.41849	14.15625	24.61501	426.053	47.145	81.69374	9.131001	14.48877	10.327	1	3	1	0.25	5653	135	146.1653	61.19125	4.322561	218.9184	172.147	2.608523	34.10376	965.7094
11/7/2014 3:52:48 PM	15:52:48	114	A	4	63	88.57143	45277.71	65	92.85714	32500	1152.008	71.52657	68.41849	14.15625	24.61501	424.4772	47	82.00224	9.133999	14.49022	10.297	1	3	1	0.25	5650	130.6001	140.709	61.13625	4.318675	218.0429	171.7338	2.604231	34.04765	964.1204
11/7/2014 3:52:58 PM	15:52:58	124	A	4	63	90	46008	66	92.85714	32500	1158.002	72.51456	68.43561	14.1555	24.565	426.3682	46.995	81.87003	9.063999	14.48426	10.273	1	3	1	0.25	5648	134	144.1006	61.13549	4.318851	219.0934	172.5663	2.601048	34.00603	962.9421
11/7/2014 3:53:08 PM	15:53:08	134	A	4	63	88.57143	45277.71	65	92.85714	32500	1157.152	72.7391	68.44415	14.1555	24.505	426.9985	47.14	81.95816	9.026001	14.48719	10.283	1	3	1	0.25	5652	133	143.3419	60.9055	4.302603	219.4436	172.5461	2.602333	34.02283	963.4177
11/7/2014 3:53:18 PM	15:53:18	0	A	4	62	90	46008	66	92.85714	32500	1157.662	73.41272	68.44415	14.1555	24.505	427.4938	46.75999	82.17851	9.006001	14.47696	10.093	1	3	1	0.25	5655	135.7998	145.3559	60.7505	4.291654	219.7188	172.5279	2.571937	33.62543	952.1646
11/7/2014 3:53:28 PM	15:53:28	0	A	4	62	88.57143	45277.71	65	94.28571	33000	1154.176	73.41272	68.46124	14.15625	24.425	426.9535	47.10001	82.17851	9.088001	14.48704	10.282	1	3	1	0.25	5659	134.7998	145.243	60.87625	4.300309	219.4186	172.78	2.601671	34.01417	963.1725
11/7/2014 3:53:38 PM	15:53:38	0	A	4	62	90	46008	66	94.28571	33000	1155.961	72.60437	68.46124	14.1555	24.495	425.4677	47.14999	82.17851	9.077	14.48491	10.318	1	3	1	0.25	5657	134.6001	143.8994	61.10051	4.31638	218.5932	172.57	2.605889	34.06932	964.7341
11/7/2014 3:53:48 PM	15:53:48	0	A	4	62	88.57143	45277.71	65	94.28571	33000	1169.608	72.96364	68.46124	14.1555	24.495	427.809	46.95	82.3548	9.136002	14.48574	10.326	1	3	1	0.25	5649	132.6001	143.2658	61.4455	4.340751	219.8939	173.576	2.609466	34.11609	966.0585
11/7/2014 3:53:58 PM	15:53:58	0	A	4	62	90	46008	66	94.28571	33000	1169.566	74.4007	68.46124	14.15663	24.485	430.2927	46.75999	82.13445	8.98	14.47845	10.135	1	3	1	0.25	5652	134.2002	144.2026	60.64162	4.283621	221.2737	173.1193	2.582847	33.76808	956.2039
11/7/2014 3:54:08 PM	15:54:08	0	A	4	63	90	46008	65	92.85714	32500	1166.377	74.62525	68.49545	14.15625	24.645	431.0042	46.815	82.17851	9.036999	14.47833	10.169	1	3	1	0.25	5650	133.6001	144.367	61.26125	4.327505	221.669	174.5855	2.586941	33.8216	957.7195
11/7/2014 3:54:18 PM	15:54:18	4	A	5	63	88.57143	45277.71	66	94.28571	33000	1160.383	74.22108	68.49545	14.15625	24.645	430.6929	47	82.26665	9.007999	14.48053	10.13	1	3	1	0.25	5657	134.6001	144.1145	61.44624	4.340573	221.496	174.6255	2.582103	33.75834	955.9282
11/7/2014 3:54:28 PM	15:54:28	14	A	5	62	90	46008	65	92.85714	32500	1162.679	74.3558	68.51257	14.15587	24.7	430.7818	47.05	82.22259	9.101002	14.48312	10.183	1	3	1	0.25	5657	135.7998	145.838	61.04087	4.312052	221.5455	173.9108	2.589997	33.86155	958.8507
11/7/2014 3:54:38 PM	15:54:38	24	A	5	62	90	46008	66	94.28571	33000	1163.572	74.67016	68.52963	14.15625	24.77499	430.8263	47.02	82.39887	9.032001	14.47858	10.105	1	3	1	0.25	5655	132.2002	142.5563	61.32124	4.331743	221.5702	174.7461	2.577645	33.70006	954.2778
11/7/2014 3:54:48 PM	15:54:48	34	A	5	62	90	46008	66	94.28571	33000	1162.041	73.86181	68.52963	14.15625	24.77499	431.4044	46.66	82.31072	8.965	14.47526	10.128	1	3	1	0.25	5656	133	142.7971	60.63625	4.283355	221.8914	172.6612	2.581274	33.7475	955.6212
11/7/2014 3:54:58 PM	15:54:58	44	A	5	62	90	46008	65	92.85714	32500	1168.333	74.17616	68.52963	14.15587	24.74001	432.694	46.53	82.13445	8.865002	14.47585	10.09	1	3	1	0.25	5660	133.7998	142.8981	60.95588	4.306048	222.6078	173.5857	2.576532	33.68551	953.8659
11/7/2014 3:55:08 PM	15:55:08	54	A	5	62	88.57143	45277.71	66	94.28571	33000	1153.496	73.18819	68.53821	14.15663	24.74001	430.7374	47.03	82.0463	8.918999	14.47859	10.146	1	3	1	0.25	5656	132.7998	143.4434	60.78162	4.293511	221.5208	172.3943	2.584433	33.78881	956.7908
11/7/2014 3:55:18 PM	15:55:18	64	A	5	63	88.57143	45277.71	65	92.85714	32500	1157.917	73.14327	68.53821	14.15663	24.74001	430.3816	47.05	81.95816	8.938	14.48235	10.194	1	3	1	0.25	5656	132.6001	141.7202	61.06162	4.313289	221.3231	172.9316	2.594258	33.91727	960.4284
11/7/2014 3:55:28 PM	15:55:28	74	A	5	62	88.57143	45277.71	65	92.85714	32500	1164.124	72.46965	68.5553	14.15587	24.63	431.8936	46.325	82.13445	8.797001	14.47716	9.986	1	3	1	0.25	5661	133.7998	144.4322	60.96587	4.306755	222.1631	172.1781	2.564201	33.5243	949.3008
11/7/2014 3:55:38 PM	15:55:38	84	A	5	62	88.57143	45277.71	65	94.28571	33000	1168.971	72.69419	68.58096	14.15625	24.495	432.2494	47.02	82.22259	8.923	14.47598	10.084	1	3	1	0.25	5657	134.2002	144.5458	60.83125	4.297131	222.3608	171.5231	2.57609	33.67973	953.7021
11/7/2014 3:55:48 PM	15:55:48	94	A	5	62	90	46008	65	94.28571	33000	1172.202	73.00855	68.58096	14.15625	24.495	434.7842	46.755	81.95816	9.022999	14.47927	10.115	1	3	1	0.25	5654	133.6001	143.8231	60.88126	4.300663	223.769	172.4521	2.581858	33.75514	955.8375
11/7/2014 3:55:58 PM	15:55:58	104	A	5	63	90	46008	65	92.85714	32500	1162.466	73.90672	68.58951	14.15587	24.38	434.0726	46.56	82.17851	8.848	14.47994	10.067	1	3	1	0.25	5659	132.3999	142.6572	60.56087	4.278144	223.3737	172.5465	2.574443	33.6582	953.0923
11/7/2014 3:56:08 PM	15:56:08	114	A	5	62	90	46008	66	94.28571	33000	1161.276	73.68217	68.6066	14.15625	24.39999	432.1159	46.42999	82.22259	8.952	14.47959	10.205	1	3	1	0.25	5657	133.7998	142.8224	61.26125	4.327505	222.2866	173.7952	2.591892	33.88632	959.5522
11/7/2014 3:56:18 PM	15:56:18	124	A	5	62	90	46008	66	94.28571	33000	1179.982	74.75997	68.6066	14.15625	24.39999	435.807	46.78999	82.44294	8.929001	14.47782	10.195	1	3	1	0.25	5653	132.3999	142.7214	60.92125	4.303488	224.3372	173.9996	2.589471	33.85468	958.6561
11/7/2014 3:56:28 PM	15:56:28	134	A	5	62	88.57143	45277.71	65	94.28571	33000	1171.309	74.71507	68.63223	14.15587	24.50999	435.3623	47.25	82.66329	9.040001	14.47589	10.132	1	3	1	0.25	5651	133.3999	143.3166	61.16587	4.320883	224.0902	174.4684	2.580987	33.74375	955.515
11/7/2014 3:56:38 PM	15:56:38	0	A	5	62	88.57143	45277.71	65	94.28571	33000	1151.455	71.88584	68.64081	14.15625	24.5	430.5594	47.035	82.66329	8.898998	14.47392	10.082	1	3	1	0.25	5660	134.6001	145.0534	60.84625	4.29819	221.4219	171.4412	2.574604	33.66031	953.1522
11/7/2014 3:56:48 PM	15:56:48	0	A	6	62	88.57143	45277.71	65	94.28571	33000	1158.257	71.88584	68.64081	14.15625	24.5	431.0486	46.72501	82.48701	8.882	14.48024	10.096	1	3	1	0.25	5655	132.6001	142.3413	61.15625	4.320088	221.6937	172.0756	2.578205	33.70739	954.4854
11/7/2014 3:56:58 PM	15:56:58	10	A	6	62	88.57143	45277.71	65	92.85714	32500	1163.529	72.51456	68.64935	14.1555	24.42999	432.5162	46.74001	82.22259	8.856998	14.47599	9.990002	1	3	1	0.25	5654	131.3999	141.0241	61.5755	4.349935	222.509	173.4641	2.564384	33.52669	949.3686
11/7/2014 3:57:08 PM	15:57:08	20	A	6	63	88.57143	45277.71	65	94.28571	33000	1154.729	73.18819	68.66644	14.15625	24.10001	433.3167	46.91	82.09038	8.861	14.47966	10.033	1	3	1	0.25	5662	133.3999	144.2419	61.04124	4.311965	222.9537	172.9308	2.570393	33.60526	951.5933
11/7/2014 3:57:18 PM	15:57:18	30	A	6	63	90	46008	65	92.85714	32500	1148.904	71.21222	68.66644	14.15625	24.10001	429.3397	46.55499	81.87003	8.853001	14.47706	10.101	1	3	1	0.25	5656	130.3999	141.074	61.29124	4.329624	220.7443	171.7865	2.580182	33.73323	955.2171
11/7/2014 3:57:28 PM	15:57:28	40	A	6	63	90	46008	66	92.85714	32500	1150.01	70.35896	68.68356	14.15587	23.995	429.2047	46.595	81.73781	8.872002	14.47618	9.987999	1	3	1	0.25	5659	131.2002	140.9331	60.75088	4.291567	220.6693	169.9724	2.564809	33.53224	949.5258
11/7/2014 3:57:38 PM	15:57:38	50	A	6	63	90	46008	66	92.85714	32500	1153.071	70.49368	68.68356	14.15587	23.995	429.1596	46.745	81.69374	8.828999	14.47679	10.003	1	3	1	0.25	5655	134.7998	145.5714	60.63587	4.283442	220.6443	169.8494	2.566717	33.5572	950.2324
11/7/2014 3:57:48 PM	15:57:48	60	A	6	62	88.57143	45277.71	66	94.28571	33000	1159.788	72.46965	68.70065	14.15587	23.95	432.5606	46.565	81.47339	8.849998	14.4704	10.036	1	3	1	0.25	5658	132	141.7703	60.74088	4.290861	222.5337	171.7164	2.568903	33.58577	951.0415
11/7/2014 3:57:58 PM	15:57:58	70	A	6	63	90	46008	65	92.85714	32500	1158.852	71.93075	68.68356	14.1555	23.785	430.6484	46.58501	81.2971	8.967999	14.47588	10.048	1	3	1	0.25	5656	132.2002	142.7971	60.4855	4.272933	221.4713	170.7441	2.572937	33.6385	952.5348
11/7/2014 3:58:08 PM	15:58:08	80	A	6	63	88.57143	45277.71	65	92.85714	32500	1160.936	73.95162	68.66644	14.15587	23.77	433.6724	47.13499	81.38525	8.785999	14.47007	9.98	1	3	1	0.25	5651	131.2002	142.4555	60.75588	4.29192	223.1513	172.9862	2.564581	33.52927	949.4416
11/7/2014 3:58:18 PM	15:58:18	90	A	6	62	88.57143	45277.71	66	92.85714	32500	1152.475	72.82892	68.66644	14.15587	23.77	431.6712	46.53999	81.12082	8.873001	14.47231	9.952	1	3	1	0.25	5660	132.3999	142.8981	61.07587	4.314525	222.0396	172.7042	2.554893	33.4026	945.8547
11/7/2014 3:58:28 PM	15:58:28	100	A	6	62	88.57143	45277.71	65	94.28571	33000	1160.298	72.60437	68.69211	14.1555	23.855	431.0931	46.675	80.94453	8.801998	14.47917	10.018	1	3	1	0.25	5657	131.6001	139.3755	60.67551	4.286355	221.7184	171.698	2.571202	33.61583	951.8927
11/7/2014 3:58:38 PM	15:58:38	110	A	6	63	88.57143	45277.71	65	92.85714	32500	1163.699	73.36781	68.69211	14.1555	23.855	432.2049	46.245	80.8564	8.831001	14.47548	10.004	1	3	1	0.25	5650	132	142.0001	60.6405	4.283883	222.3361	172.2639	2.569331	33.59136	951.1998
11/7/2014 3:58:48 PM	15:58:48	120	A	6	63	90	46008	65	92.85714	32500	1162.679	74.3558	68.66644	14.15512	24.03	432.9164	47.105	80.90047	8.787998	14.4746	9.993999	1	3	1	0.25	5652	130.3999	141.1896	61.08512	4.315406	222.7314	174.0083	2.567896	33.5726	950.6686
11/7/2014 3:58:58 PM	15:58:58	130	A	6	62	88.57143	45277.71	66	94.28571	33000	1151.625	72.64928	68.66644	14.15475	24.11	430.4261	46.88499	80.94453	8.866001	14.4701	10.067	1	3	1	0.25	5660	131.6001	141.3895	61.08474	4.315495	221.3478	172.5819	2.576479	33.68483	953.8464
11/7/2014 4:02:57 PM	16:02:57	0	A	6	63	88.57143	45277.71	65	92.85714	32500	1154.261	75.07433	68.66644	14.15363	24.7	426.6833	46.755	82.70737	8.884998	14.48044	10.2	1	3	1	0.25	5657	132	141.3145	60.69862	4.288557	219.2685	173.8266	2.589695	33.8576	958.739
11/7/2014 4:03:07 PM	16:03:07	8	A	7	62	88.57143	45277.71	66	92.85714	32500	1156.727	74.84979	68.66644	14.15363	24.7	426.2781	46.965	82.57515	8.924999	14.48199	10.138	1	3	1	0.25	5653	133.2002	142.0755	60.97363	4.307987	219.0434	174.2059	2.582498	33.76351	956.0745
11/7/2014 4:03:17 PM	16:03:17	18	A	7	63	90	46008	66	92.85714	32500	1161.658	74.93961	68.66644	14.15288	24.64	427.0435	46.685	82.66329	8.928001	14.47766	10.183	1	3	1	0.25	5654	132.6001	143.3926	60.92787	4.304982	219.4686	174.1935	2.58745	33.82825	957.9079
11/7/2014 4:03:27 PM	16:03:27	28	A	7	62	88.57143	45277.71	65	94.28571	33000	1155.366	74.08635	68.70065	14.1525	24.57001	426.6833	46.485	82.70737	8.882	14.47367	10.156	1	3	1	0.25	5656	132.6001	143.0122	60.6475	4.285285	219.2685	172.9052	2.583641	33.77845	956.4976
11/7/2014 4:03:37 PM	16:03:37	38	A	7	62	88.57143	45277.71	65	94.28571	33000	1163.529	75.70013	68.70065	14.15288	24.39999	427.944	46.7	82.75143	9.175999	14.47701	10.236	1	3	1	0.25	5650	133.2002	144.1516	60.90788	4.303569	219.9689	174.7886	2.591746	33.88442	959.4984
11/7/2014 4:03:47 PM	16:03:47	48	A	7	63	88.57143	45277.71	65	92.85714	32500	1159.15	75.92049	68.70065	14.15288	24.39999	427.7639	46.82001	82.83958	8.93	14.4747	10.176	1	3	1	0.25	5657	132.2002	141.0989	60.39787	4.267534	219.8689	173.917	2.586139	33.81111	957.4224
11/7/2014 4:03:57 PM	16:03:57	58	A	7	63	88.57143	45277.71	65	92.85714	32500	1163.784	75.92049	68.7092	14.1525	24.39	427.1336	46.715	82.88364	8.985001	14.47656	10.149	1	3	1	0.25	5655	133.2002	143.633	60.7125	4.289878	219.5187	174.5725	2.581515	33.75066	955.7106
11/7/2014 4:04:07 PM	16:04:07	68	A	7	62	88.57143	45277.71	66	92.85714	32500	1161.743	76.36119	68.71777	14.1525	24.405	428.7994	46.85001	83.05993	9.021	14.48083	10.196	1	3	1	0.25	5655	132.6001	142.1257	61.2325	4.326621	220.4441	176.0145	2.588395	33.84061	958.2578
11/7/2014 4:04:17 PM	16:04:17	78	A	7	63	88.57143	45277.71	65	92.85714	32500	1165.229	75.87642	68.71777	14.1525	24.405	428.4393	46.77499	83.104	8.834	14.47353	10.012	1	3	1	0.25	5651	131.7998	141.8098	61.0275	4.312136	220.244	175.1862	2.566065	33.54867	949.9909
11/7/2014 4:04:27 PM	16:04:27	88	A	7	62	90	46008	66	94.28571	33000	1181.427	77.90366	68.75195	14.1525	24.375	433.4945	46.465	83.32435	8.637001	14.4723	9.860001	1	3	1	0.25	5649	133	144.1261	60.39251	4.267268	223.0525	175.5645	2.551828	33.36253	944.7202
11/7/2014 4:04:37 PM	16:04:37	98	A	7	62	88.57143	45277.71	65	92.85714	32500	1169.183	79.00543	68.75195	14.1525	24.375	435.9404	45.995	83.36842	8.650002	14.47487	9.959	1	3	1	0.25	5654	131.6001	142.5311	60.6475	4.285285	224.4114	177.016	2.565568	33.54218	949.8071
11/7/2014 4:04:47 PM	16:04:47	108	A	7	62	90	46008	65	92.85714	32500	1170.034	76.97818	68.75195	14.15288	24.37	432.694	46.64	83.45657	8.848999	14.47857	10.079	1	3	1	0.25	5645	133	143.8088	61.13788	4.31982	222.6078	176.333	2.575254	33.6688	953.3926
11/7/2014 4:04:57 PM	16:04:57	118	A	7	62	88.57143	45277.71	66	92.85714	32500	1155.154	75.87642	68.78616	14.1525	24.42	431.0042	46.2	83.50063	8.936001	14.47385	10.119	1	3	1	0.25	5658	133.2002	143.9249	60.95749	4.307189	221.669	175.0418	2.577934	33.70385	954.385
11/7/2014 4:05:07 PM	16:05:07	128	A	7	63	90	46008	65	92.85714	32500	1153.921	75.02943	68.78616	14.15212	24.39999	430.2927	46.85001	83.58878	9.037998	14.47677	10.173	1	3	1	0.25	5652	134	144.2026	60.47213	4.273007	221.2737	173.3338	2.584174	33.78542	956.6951
11/7/2014 4:06:14 PM	16:06:14	0	A	7	62	88.57143	45277.71	65	92.85714	32500	1156.387	72.46965	68.88019	14.1525	24.27499	428.6194	46.715	83.14807	8.924	14.47693	10.107	1	3	1	0.25	5656	134	145.166	60.61251	4.282813	220.3441	171.4821	2.577199	33.69423	954.1127
11/7/2014 4:06:24 PM	16:06:24	8	A	8	62	88.57143	45277.71	65	92.85714	32500	1151.923	72.60437	68.93149	14.1525	24.255	428.0341	46.47501	83.104	9.014	14.48452	10.232	1	3	1	0.25	5652	131	141.1896	60.61251	4.282813	220.0189	171.5947	2.593066	33.90167	959.9868
11/7/2014 4:06:34 PM	16:06:34	18	A	8	62	88.57143	45277.71	65	94.28571	33000	1156.047	74.04144	68.93149	14.1525	24.255	429.4297	46.505	83.28028	8.881001	14.47234	10.029	1	3	1	0.25	5655	131	141.2646	60.9475	4.306483	220.7943	173.4856	2.572373	33.63114	952.3263
11/7/2014 4:06:44 PM	16:06:44	28	A	8	63	90	46008	65	92.85714	32500	1156.089	73.68217	68.94861	14.1525	24.215	427.899	46.705	83.50063	9.029999	14.47732	10.157	1	3	1	0.25	5650	132.6001	142.8605	60.8125	4.296944	219.9439	172.9074	2.577519	33.69842	954.2314
11/7/2014 4:06:54 PM	16:06:54	38	A	8	62	90	46008	66	94.28571	33000	1158.64	74.13126	68.94861	14.1525	24.215	428.6644	47.27499	83.58878	9.140999	14.47823	10.207	1	3	1	0.25	5653	131	140.5687	60.8725	4.301184	220.3691	173.4065	2.586156	33.81133	957.4287
11/7/2014 4:07:04 PM	16:07:04	48	A	8	62	88.57143	45277.71	66	92.85714	32500	1157.534	74.4007	68.94003	14.1525	24.16	428.1691	46.72501	83.63285	8.951	14.47534	10.03	1	3	1	0.25	5650	130.6001	140.4941	60.7325	4.291291	220.094	173.3434	2.565979	33.54754	949.9589
11/7/2014 4:07:14 PM	16:07:14	58	A	8	62	88.57143	45277.71	65	92.85714	32500	1165.782	74.8947	68.9657	14.1525	24.16	429.0696	46.8	83.58878	8.907001	14.47993	10.104	1	3	1	0.25	5655	131.7998	140.8335	60.69249	4.288465	220.5942	173.6737	2.576799	33.689	953.9646
11/7/2014 4:07:24 PM	16:07:24	68	A	8	62	88.57143	45277.71	65	92.85714	32500	1157.534	74.31089	68.99136	14.15212	24.05	427.6288	46.755	83.76506	8.935001	14.47977	10.215	1	3	1	0.25	5650	131.7998	142.8605	61.19712	4.324235	219.7938	174.2272	2.59253	33.89467	959.7886
11/7/2014 4:07:34 PM	16:07:34	78	A	8	63	88.57143	45277.71	65	92.85714	32500	1156.259	74.04144	68.99136	14.15212	24.05	428.0791	46.88	83.67692	8.890999	14.47912	10.164	1	3	1	0.25	5652	131.7998	142.0503	61.28213	4.330242	220.0439	174.1756	2.582822	33.76775	956.1946
11/7/2014 4:07:44 PM	16:07:44	88	A	8	63	90	46008	66	92.85714	32500	1162.211	73.68217	69.00845	14.15213	23.965	428.9796	47.28999	83.63285	9.001999	14.48111	10.154	1	3	1	0.25	5651	131.2002	141.8098	61.04213	4.313283	220.5442	173.3826	2.581871	33.75531	955.8425
11/7/2014 4:07:54 PM	16:07:54	98	A	8	62	88.57143	45277.71	66	92.85714	32500	1160.298	74.80489	69.02557	14.15212	23.905	429.6999	46.14999	83.67692	8.929001	14.47688	10.118	1	3	1	0.25	5653	131.2002	142.0755	61.07212	4.315403	220.9444	174.3842	2.576684	33.68749	953.9219
11/7/2014 4:08:04 PM	16:08:04	108	A	8	62	90	46008	66	94.28571	33000	1165.697	75.34378	69.02557	14.15212	23.905	431.1376	46.36	83.63285	9.057999	14.4776	10.145	1	3	1	0.25	5652	131.3999	141.62	60.71712	4.290319	221.7431	174.1033	2.578838	33.71566	954.7197
11/7/2014 4:08:14 PM	16:08:14	118	A	8	62	90	46008	66	92.85714	32500	1167.738	75.65607	69.05975	14.15137	23.815	431.4933	46.485	83.58878	8.860001	14.47804	10.197	1	3	1	0.25	5650	128.3999	137.4817	61.10638	4.318052	221.9408	175.1741	2.587007	33.82247	957.744
11/7/2014 4:08:24 PM	16:08:24	128	A	8	62	88.57143	45277.71	65	92.85714	32500	1155.579	75.29887	69.0683	14.15213	23.75999	430.5594	46.245	83.58878	8.889	14.46972	10.021	1	3	1	0.25	5633	132.2002	141.7875	60.67712	4.287491	221.4219	173.9831	2.564452	33.52758	949.3937
11/7/2014 4:11:33 PM	16:11:33	0	A	8	0	0	0	0	0	0	678.5046	73.63726	69.18799	14.15325	23.69501	310.2684	-8.999634E-02	84.42612	-0.2549992	14.14436	1.099968E-02	0	1	1	0.25	-1	-0.2001953	3.811712E-05	14.06325	0.9936413	154.5936	22.60198	9.238539E-02	1.207844	34.20228
